createdAt,value
2024-05-09T00:00:15.772Z,788.5410
2024-05-09T00:00:30.811Z,776.6140
2024-05-09T00:00:42.863Z,779.3340
2024-05-09T00:00:53.999Z,777.9720
2024-05-09T00:01:05.181Z,775.7120
2024-05-09T00:01:16.399Z,775.7120
2024-05-09T00:01:27.474Z,783.4510
2024-05-09T00:01:38.511Z,780.2450
2024-05-09T00:01:49.560Z,781.6160
2024-05-09T00:02:00.600Z,783.9110
2024-05-09T00:02:11.719Z,779.7900
2024-05-09T00:02:22.922Z,785.2940
2024-05-09T00:02:34.133Z,781.1590
2024-05-09T00:02:45.178Z,782.5320
2024-05-09T00:02:56.225Z,789.0070
2024-05-09T00:03:07.889Z,782.0740
2024-05-09T00:03:19.618Z,778.8800
2024-05-09T00:03:30.691Z,785.2940
2024-05-09T00:03:41.876Z,787.1460
2024-05-09T00:03:53.083Z,786.6820
2024-05-09T00:04:04.283Z,784.3710
2024-05-09T00:04:15.498Z,788.0760
2024-05-09T00:04:26.577Z,782.5320
2024-05-09T00:04:37.691Z,779.7900
2024-05-09T00:04:48.764Z,782.5320
2024-05-09T00:04:59.956Z,782.5320
2024-05-09T00:05:11.674Z,789.0070
2024-05-09T00:05:22.831Z,786.2190
2024-05-09T00:05:34.149Z,786.6820
2024-05-09T00:05:45.506Z,780.7020
2024-05-09T00:05:56.671Z,781.6160
2024-05-09T00:06:07.976Z,785.7560
2024-05-09T00:06:19.134Z,785.2940
2024-05-09T00:06:30.181Z,783.4510
2024-05-09T00:06:41.199Z,780.7020
2024-05-09T00:06:52.246Z,784.3710
2024-05-09T00:07:03.297Z,782.5320
2024-05-09T00:07:14.353Z,786.6820
2024-05-09T00:07:25.374Z,787.6110
2024-05-09T00:07:36.424Z,789.9410
2024-05-09T00:07:47.503Z,788.0760
2024-05-09T00:07:58.592Z,785.7560
2024-05-09T00:08:09.837Z,786.2190
2024-05-09T00:08:21.382Z,788.0760
2024-05-09T00:08:32.637Z,787.1460
2024-05-09T00:08:43.756Z,783.9110
2024-05-09T00:08:54.855Z,786.2190
2024-05-09T00:09:05.913Z,789.9410
2024-05-09T00:09:16.963Z,789.4740
2024-05-09T00:09:27.972Z,787.6110
2024-05-09T00:09:39.008Z,783.9110
2024-05-09T00:09:50.056Z,786.6820
2024-05-09T00:10:01.135Z,786.6820
2024-05-09T00:10:22.091Z,785.7560
2024-05-09T00:10:35.732Z,783.4510
2024-05-09T00:10:46.151Z,775.2610
2024-05-09T00:10:57.333Z,779.7900
2024-05-09T00:11:08.572Z,777.0660
2024-05-09T00:11:19.768Z,780.7020
2024-05-09T00:11:30.891Z,779.3340
2024-05-09T00:11:42.084Z,774.3620
2024-05-09T00:11:53.333Z,781.6160
2024-05-09T00:12:04.585Z,778.8800
2024-05-09T00:12:15.782Z,775.2610
2024-05-09T00:12:26.907Z,776.1630
2024-05-09T00:12:37.955Z,781.6160
2024-05-09T00:12:49.004Z,782.5320
2024-05-09T00:13:00.053Z,783.9110
2024-05-09T00:13:11.492Z,780.2450
2024-05-09T00:13:22.790Z,776.6140
2024-05-09T00:13:33.819Z,776.1630
2024-05-09T00:13:44.946Z,776.6140
2024-05-09T00:13:56.093Z,781.6160
2024-05-09T00:14:07.206Z,783.4510
2024-05-09T00:14:18.282Z,777.9720
2024-05-09T00:14:29.399Z,784.3710
2024-05-09T00:14:40.455Z,777.9720
2024-05-09T00:14:51.487Z,786.6820
2024-05-09T00:15:02.494Z,781.1590
2024-05-09T00:15:13.546Z,784.8320
2024-05-09T00:15:24.602Z,778.8800
2024-05-09T00:15:36.453Z,782.5320
2024-05-09T00:15:48.047Z,782.0740
2024-05-09T00:15:59.087Z,781.6160
2024-05-09T00:16:10.153Z,784.3710
2024-05-09T00:16:21.201Z,782.5320
2024-05-09T00:16:32.262Z,781.6160
2024-05-09T00:16:43.334Z,780.2450
2024-05-09T00:16:54.505Z,787.1460
2024-05-09T00:17:05.571Z,782.5320
2024-05-09T00:17:16.751Z,778.8800
2024-05-09T00:17:27.964Z,788.0760
2024-05-09T00:17:39.392Z,781.6160
2024-05-09T00:17:50.714Z,781.6160
2024-05-09T00:18:02.270Z,785.2940
2024-05-09T00:18:13.839Z,785.7560
2024-05-09T00:18:25.173Z,780.7020
2024-05-09T00:18:36.509Z,786.2190
2024-05-09T00:18:47.659Z,779.7900
2024-05-09T00:18:58.964Z,780.7020
2024-05-09T00:19:10.284Z,779.3340
2024-05-09T00:19:21.579Z,779.7900
2024-05-09T00:19:32.785Z,777.9720
2024-05-09T00:19:43.964Z,783.4510
2024-05-09T00:19:55.067Z,778.8800
2024-05-09T00:20:14.269Z,784.3710
2024-05-09T00:20:28.565Z,784.8320
2024-05-09T00:20:41.276Z,770.7850
2024-05-09T00:20:52.723Z,776.1630
2024-05-09T00:21:03.881Z,773.0170
2024-05-09T00:21:15.141Z,771.2300
2024-05-09T00:21:26.191Z,770.7850
2024-05-09T00:21:37.261Z,773.4650
2024-05-09T00:21:48.278Z,772.5690
2024-05-09T00:21:59.315Z,779.7900
2024-05-09T00:22:10.341Z,773.9130
2024-05-09T00:22:21.401Z,777.5190
2024-05-09T00:22:32.451Z,779.7900
2024-05-09T00:22:43.556Z,779.3340
2024-05-09T00:22:54.660Z,780.2450
2024-05-09T00:23:05.731Z,773.9130
2024-05-09T00:23:16.853Z,778.4260
2024-05-09T00:23:27.978Z,777.9720
2024-05-09T00:23:39.084Z,781.6160
2024-05-09T00:23:50.190Z,777.0660
2024-05-09T00:24:01.233Z,777.9720
2024-05-09T00:24:12.276Z,779.7900
2024-05-09T00:24:23.339Z,782.5320
2024-05-09T00:24:34.372Z,782.5320
2024-05-09T00:24:45.428Z,782.5320
2024-05-09T00:24:56.507Z,785.7560
2024-05-09T00:25:07.541Z,777.9720
2024-05-09T00:25:18.609Z,780.2450
2024-05-09T00:25:29.650Z,782.0740
2024-05-09T00:25:40.743Z,780.2450
2024-05-09T00:25:51.865Z,781.6160
2024-05-09T00:26:02.999Z,782.0740
2024-05-09T00:26:14.071Z,777.5190
2024-05-09T00:26:25.179Z,784.3710
2024-05-09T00:26:36.385Z,783.4510
2024-05-09T00:26:47.429Z,776.1630
2024-05-09T00:26:58.483Z,778.4260
2024-05-09T00:27:11.987Z,783.9110
2024-05-09T00:27:24.369Z,776.6140
2024-05-09T00:27:35.435Z,777.9720
2024-05-09T00:27:46.498Z,782.0740
2024-05-09T00:27:57.539Z,782.5320
2024-05-09T00:28:08.564Z,784.8320
2024-05-09T00:28:19.717Z,775.2610
2024-05-09T00:28:30.771Z,780.7020
2024-05-09T00:28:41.863Z,774.8110
2024-05-09T00:28:53.003Z,782.5320
2024-05-09T00:29:04.078Z,784.8320
2024-05-09T00:29:15.182Z,782.0740
2024-05-09T00:29:26.316Z,777.0660
2024-05-09T00:29:37.464Z,783.9110
2024-05-09T00:29:48.475Z,784.3710
2024-05-09T00:29:59.542Z,781.1590
2024-05-09T00:30:14.506Z,781.1590
2024-05-09T00:30:33.750Z,775.2610
2024-05-09T00:30:44.442Z,775.2610
2024-05-09T00:30:55.492Z,768.1240
2024-05-09T00:31:06.541Z,769.8960
2024-05-09T00:31:17.625Z,776.1630
2024-05-09T00:31:28.658Z,777.5190
2024-05-09T00:31:39.726Z,773.9130
2024-05-09T00:31:51.100Z,779.3340
2024-05-09T00:32:02.359Z,771.6760
2024-05-09T00:32:13.450Z,773.0170
2024-05-09T00:32:24.682Z,775.7120
2024-05-09T00:32:35.985Z,778.4260
2024-05-09T00:32:47.312Z,780.2450
2024-05-09T00:32:58.697Z,779.7900
2024-05-09T00:33:10.977Z,776.1630
2024-05-09T00:33:23.134Z,775.2610
2024-05-09T00:33:34.864Z,776.1630
2024-05-09T00:33:46.097Z,778.4260
2024-05-09T00:33:57.589Z,773.4650
2024-05-09T00:34:09.028Z,777.0660
2024-05-09T00:34:20.306Z,777.9720
2024-05-09T00:34:31.567Z,775.7120
2024-05-09T00:34:42.733Z,774.3620
2024-05-09T00:34:53.790Z,778.8800
2024-05-09T00:35:04.875Z,779.3340
2024-05-09T00:35:16.107Z,778.8800
2024-05-09T00:35:27.227Z,775.2610
2024-05-09T00:35:38.836Z,774.3620
2024-05-09T00:35:50.131Z,775.2610
2024-05-09T00:36:01.186Z,774.8110
2024-05-09T00:36:12.240Z,782.9910
2024-05-09T00:36:23.296Z,780.7020
2024-05-09T00:36:34.356Z,779.3340
2024-05-09T00:36:45.426Z,777.5190
2024-05-09T00:36:56.491Z,779.3340
2024-05-09T00:37:07.555Z,777.9720
2024-05-09T00:37:18.586Z,779.7900
2024-05-09T00:37:29.633Z,779.7900
2024-05-09T00:37:40.944Z,784.3710
2024-05-09T00:37:52.037Z,779.7900
2024-05-09T00:38:03.345Z,781.1590
2024-05-09T00:38:14.631Z,783.4510
2024-05-09T00:38:25.737Z,777.9720
2024-05-09T00:38:37.031Z,781.6160
2024-05-09T00:38:48.121Z,774.8110
2024-05-09T00:38:59.181Z,781.1590
2024-05-09T00:39:10.226Z,782.0740
2024-05-09T00:39:21.250Z,774.3620
2024-05-09T00:39:32.301Z,776.1630
2024-05-09T00:39:43.328Z,781.6160
2024-05-09T00:39:54.373Z,781.6160
2024-05-09T00:40:26.440Z,774.8110
2024-05-09T00:40:38.794Z,776.1630
2024-05-09T00:40:50.849Z,771.6760
2024-05-09T00:41:01.955Z,765.4820
2024-05-09T00:41:14.148Z,771.6760
2024-05-09T00:41:26.345Z,765.0430
2024-05-09T00:41:37.501Z,765.9210
2024-05-09T00:41:48.641Z,771.6760
2024-05-09T00:41:59.671Z,772.5690
2024-05-09T00:42:10.721Z,768.1240
2024-05-09T00:42:21.805Z,769.0090
2024-05-09T00:42:32.864Z,775.7120
2024-05-09T00:42:43.896Z,770.3400
2024-05-09T00:42:54.955Z,774.3620
2024-05-09T00:43:06.061Z,772.1230
2024-05-09T00:43:17.095Z,779.7900
2024-05-09T00:43:28.134Z,767.6830
2024-05-09T00:43:39.172Z,773.9130
2024-05-09T00:43:50.299Z,777.9720
2024-05-09T00:44:01.411Z,777.0660
2024-05-09T00:44:12.491Z,780.2450
2024-05-09T00:44:23.658Z,775.2610
2024-05-09T00:44:34.775Z,774.8110
2024-05-09T00:44:45.796Z,777.9720
2024-05-09T00:44:56.854Z,777.0660
2024-05-09T00:45:07.895Z,776.6140
2024-05-09T00:45:18.955Z,773.0170
2024-05-09T00:45:30.003Z,778.4260
2024-05-09T00:45:41.070Z,781.1590
2024-05-09T00:45:52.148Z,775.2610
2024-05-09T00:46:03.168Z,777.5190
2024-05-09T00:46:14.233Z,777.0660
2024-05-09T00:46:25.287Z,773.4650
2024-05-09T00:46:36.387Z,780.2450
2024-05-09T00:46:47.475Z,778.8800
2024-05-09T00:46:58.559Z,777.9720
2024-05-09T00:47:09.938Z,780.7020
2024-05-09T00:47:21.297Z,774.3620
2024-05-09T00:47:32.536Z,777.9720
2024-05-09T00:47:43.878Z,777.0660
2024-05-09T00:47:55.144Z,776.6140
2024-05-09T00:48:07.102Z,777.0660
2024-05-09T00:48:21.401Z,771.2300
2024-05-09T00:48:32.967Z,769.0090
2024-05-09T00:48:44.267Z,769.0090
2024-05-09T00:48:55.545Z,769.4520
2024-05-09T00:49:06.726Z,768.1240
2024-05-09T00:49:17.925Z,772.5690
2024-05-09T00:49:29.253Z,772.1230
2024-05-09T00:49:40.540Z,770.7850
2024-05-09T00:49:51.783Z,770.3400
2024-05-09T00:50:04.154Z,770.7850
2024-05-09T00:50:19.438Z,771.2300
2024-05-09T00:50:36.218Z,762.8570
2024-05-09T00:50:49.391Z,758.5230
2024-05-09T00:51:00.619Z,765.9210
2024-05-09T00:51:11.785Z,763.2930
2024-05-09T00:51:22.906Z,765.9210
2024-05-09T00:51:33.983Z,762.8570
2024-05-09T00:51:45.051Z,768.1240
2024-05-09T00:51:56.102Z,771.2300
2024-05-09T00:52:07.162Z,765.9210
2024-05-09T00:52:18.188Z,773.9130
2024-05-09T00:52:29.245Z,771.2300
2024-05-09T00:52:40.286Z,773.4650
2024-05-09T00:52:51.489Z,771.2300
2024-05-09T00:53:02.600Z,768.5660
2024-05-09T00:53:13.710Z,769.4520
2024-05-09T00:53:24.867Z,769.8960
2024-05-09T00:53:36.022Z,768.1240
2024-05-09T00:53:47.132Z,772.5690
2024-05-09T00:53:58.155Z,773.9130
2024-05-09T00:54:09.218Z,773.9130
2024-05-09T00:54:20.278Z,769.4520
2024-05-09T00:54:31.323Z,777.9720
2024-05-09T00:54:42.368Z,770.7850
2024-05-09T00:54:53.424Z,769.0090
2024-05-09T00:55:04.475Z,777.0660
2024-05-09T00:55:15.529Z,775.2610
2024-05-09T00:55:26.610Z,769.8960
2024-05-09T00:55:37.674Z,777.5190
2024-05-09T00:55:48.752Z,779.3340
2024-05-09T00:55:59.890Z,771.6760
2024-05-09T00:56:11.200Z,777.0660
2024-05-09T00:56:22.381Z,777.9720
2024-05-09T00:56:33.592Z,776.6140
2024-05-09T00:56:44.652Z,769.0090
2024-05-09T00:56:55.712Z,774.3620
2024-05-09T00:57:06.821Z,774.8110
2024-05-09T00:57:17.894Z,773.0170
2024-05-09T00:57:28.960Z,775.2610
2024-05-09T00:57:40.027Z,772.1230
2024-05-09T00:57:51.076Z,771.6760
2024-05-09T00:58:02.103Z,772.5690
2024-05-09T00:58:13.165Z,772.5690
2024-05-09T00:58:24.203Z,779.7900
2024-05-09T00:58:35.254Z,771.2300
2024-05-09T00:58:46.349Z,775.2610
2024-05-09T00:58:57.459Z,771.2300
2024-05-09T00:59:08.560Z,776.1630
2024-05-09T00:59:19.650Z,779.7900
2024-05-09T00:59:30.752Z,775.2610
2024-05-09T00:59:41.820Z,771.6760
2024-05-09T00:59:52.903Z,773.9130
2024-05-09T01:00:05.986Z,773.0170
2024-05-09T01:00:26.222Z,775.2610
2024-05-09T01:00:38.734Z,769.8960
2024-05-09T01:00:51.159Z,764.6050
2024-05-09T01:01:02.307Z,762.4210
2024-05-09T01:01:13.435Z,762.4210
2024-05-09T01:01:24.535Z,763.7300
2024-05-09T01:01:35.810Z,766.3610
2024-05-09T01:01:47.027Z,770.7850
2024-05-09T01:01:58.339Z,769.8960
2024-05-09T01:02:09.579Z,768.1240
2024-05-09T01:02:20.703Z,764.6050
2024-05-09T01:02:31.871Z,765.0430
2024-05-09T01:02:43.121Z,765.9210
2024-05-09T01:02:54.360Z,772.1230
2024-05-09T01:03:06.068Z,769.8960
2024-05-09T01:03:17.585Z,769.8960
2024-05-09T01:03:29.044Z,767.2410
2024-05-09T01:03:40.433Z,770.3400
2024-05-09T01:03:51.955Z,766.3610
2024-05-09T01:04:03.504Z,763.7300
2024-05-09T01:04:14.597Z,772.5690
2024-05-09T01:04:25.670Z,771.6760
2024-05-09T01:04:36.738Z,772.1230
2024-05-09T01:04:47.914Z,769.4520
2024-05-09T01:04:59.063Z,772.5690
2024-05-09T01:05:10.343Z,771.6760
2024-05-09T01:05:21.528Z,773.4650
2024-05-09T01:05:32.702Z,774.3620
2024-05-09T01:05:44.002Z,773.0170
2024-05-09T01:05:55.276Z,771.6760
2024-05-09T01:06:06.423Z,772.1230
2024-05-09T01:06:17.469Z,773.4650
2024-05-09T01:06:28.531Z,773.4650
2024-05-09T01:06:39.579Z,773.0170
2024-05-09T01:06:50.646Z,769.0090
2024-05-09T01:07:01.702Z,769.8960
2024-05-09T01:07:12.735Z,768.5660
2024-05-09T01:07:23.785Z,770.3400
2024-05-09T01:07:34.843Z,771.2300
2024-05-09T01:07:46.140Z,774.8110
2024-05-09T01:07:57.227Z,775.7120
2024-05-09T01:08:08.808Z,768.5660
2024-05-09T01:08:20.556Z,773.4650
2024-05-09T01:08:31.648Z,775.7120
2024-05-09T01:08:42.805Z,776.1630
2024-05-09T01:08:53.853Z,774.3620
2024-05-09T01:09:04.898Z,764.1670
2024-05-09T01:09:15.949Z,770.7850
2024-05-09T01:09:27.002Z,774.3620
2024-05-09T01:09:38.043Z,775.2610
2024-05-09T01:09:49.116Z,774.8110
2024-05-09T01:10:00.212Z,769.8960
2024-05-09T01:10:17.073Z,777.0660
2024-05-09T01:10:34.012Z,766.8010
2024-05-09T01:10:47.109Z,762.8570
2024-05-09T01:10:59.817Z,755.0900
2024-05-09T01:11:11.066Z,756.8030
2024-05-09T01:11:22.368Z,766.8010
2024-05-09T01:11:33.584Z,763.2930
2024-05-09T01:11:44.872Z,767.2410
2024-05-09T01:11:56.078Z,771.6760
2024-05-09T01:12:07.248Z,762.8570
2024-05-09T01:12:18.574Z,761.1170
2024-05-09T01:12:29.873Z,765.4820
2024-05-09T01:12:40.953Z,768.5660
2024-05-09T01:12:52.024Z,765.0430
2024-05-09T01:13:03.056Z,770.7850
2024-05-09T01:13:14.207Z,765.9210
2024-05-09T01:13:25.262Z,765.4820
2024-05-09T01:13:36.313Z,765.4820
2024-05-09T01:13:47.345Z,763.7300
2024-05-09T01:13:58.425Z,769.0090
2024-05-09T01:14:09.607Z,770.7850
2024-05-09T01:14:20.680Z,764.6050
2024-05-09T01:14:31.741Z,769.0090
2024-05-09T01:14:42.775Z,762.4210
2024-05-09T01:14:53.853Z,769.4520
2024-05-09T01:15:04.901Z,771.6760
2024-05-09T01:15:15.947Z,772.1230
2024-05-09T01:15:26.991Z,769.0090
2024-05-09T01:15:38.072Z,768.1240
2024-05-09T01:15:49.125Z,768.5660
2024-05-09T01:16:00.181Z,774.3620
2024-05-09T01:16:11.277Z,772.5690
2024-05-09T01:16:22.298Z,768.1240
2024-05-09T01:16:33.417Z,771.2300
2024-05-09T01:16:44.539Z,774.3620
2024-05-09T01:16:55.611Z,767.6830
2024-05-09T01:17:06.795Z,771.6760
2024-05-09T01:17:18.018Z,768.1240
2024-05-09T01:17:29.286Z,766.8010
2024-05-09T01:17:40.699Z,768.5660
2024-05-09T01:17:52.059Z,772.1230
2024-05-09T01:18:03.409Z,773.0170
2024-05-09T01:18:14.746Z,768.5660
2024-05-09T01:18:26.070Z,769.8960
2024-05-09T01:18:37.223Z,774.3620
2024-05-09T01:18:48.386Z,773.4650
2024-05-09T01:18:59.512Z,771.2300
2024-05-09T01:19:10.729Z,773.4650
2024-05-09T01:19:22.009Z,767.2410
2024-05-09T01:19:33.212Z,764.6050
2024-05-09T01:19:44.400Z,771.6760
2024-05-09T01:19:55.495Z,768.1240
2024-05-09T01:20:10.638Z,773.0170
2024-05-09T01:20:32.115Z,761.1170
2024-05-09T01:20:43.409Z,751.6890
2024-05-09T01:20:56.228Z,753.3860
2024-05-09T01:21:07.258Z,757.2320
2024-05-09T01:21:18.420Z,757.2320
2024-05-09T01:21:29.544Z,758.5230
2024-05-09T01:21:40.610Z,758.0920
2024-05-09T01:21:51.644Z,757.6620
2024-05-09T01:22:02.706Z,761.5520
2024-05-09T01:22:13.722Z,764.6050
2024-05-09T01:22:24.781Z,759.3860
2024-05-09T01:22:35.838Z,763.7300
2024-05-09T01:22:46.973Z,761.1170
2024-05-09T01:22:58.107Z,765.9210
2024-05-09T01:23:09.860Z,761.5520
2024-05-09T01:23:21.291Z,761.1170
2024-05-09T01:23:32.634Z,762.4210
2024-05-09T01:23:43.804Z,768.1240
2024-05-09T01:23:54.854Z,762.8570
2024-05-09T01:24:05.909Z,768.1240
2024-05-09T01:24:16.925Z,765.4820
2024-05-09T01:24:27.988Z,767.2410
2024-05-09T01:24:39.029Z,762.8570
2024-05-09T01:24:50.079Z,768.1240
2024-05-09T01:25:01.158Z,760.2510
2024-05-09T01:25:12.213Z,764.6050
2024-05-09T01:25:23.275Z,771.2300
2024-05-09T01:25:34.323Z,768.1240
2024-05-09T01:25:46.445Z,768.5660
2024-05-09T01:25:58.032Z,768.1240
2024-05-09T01:26:09.109Z,765.9210
2024-05-09T01:26:20.393Z,768.5660
2024-05-09T01:26:31.551Z,761.1170
2024-05-09T01:26:42.657Z,767.2410
2024-05-09T01:26:53.692Z,763.7300
2024-05-09T01:27:04.739Z,765.9210
2024-05-09T01:27:15.789Z,767.2410
2024-05-09T01:27:26.826Z,765.0430
2024-05-09T01:27:37.872Z,765.0430
2024-05-09T01:27:48.933Z,769.0090
2024-05-09T01:27:59.991Z,766.8010
2024-05-09T01:28:11.046Z,761.1170
2024-05-09T01:28:22.111Z,768.1240
2024-05-09T01:28:33.164Z,768.5660
2024-05-09T01:28:44.280Z,772.5690
2024-05-09T01:28:55.433Z,768.5660
2024-05-09T01:29:06.629Z,764.1670
2024-05-09T01:29:17.706Z,769.8960
2024-05-09T01:29:28.910Z,771.6760
2024-05-09T01:29:40.048Z,771.2300
2024-05-09T01:29:51.145Z,763.2930
2024-05-09T01:30:03.027Z,770.7850
2024-05-09T01:30:21.062Z,758.9540
2024-05-09T01:30:36.112Z,758.0920
2024-05-09T01:30:48.866Z,751.6890
2024-05-09T01:30:59.920Z,759.3860
2024-05-09T01:31:10.980Z,755.0900
2024-05-09T01:31:22.160Z,758.5230
2024-05-09T01:31:33.242Z,764.6050
2024-05-09T01:31:44.399Z,755.9460
2024-05-09T01:31:55.553Z,755.5180
2024-05-09T01:32:06.791Z,765.4820
2024-05-09T01:32:17.954Z,760.6840
2024-05-09T01:32:29.139Z,766.3610
2024-05-09T01:32:40.395Z,766.3610
2024-05-09T01:32:51.757Z,764.6050
2024-05-09T01:33:03.389Z,761.9860
2024-05-09T01:33:14.974Z,766.3610
2024-05-09T01:33:26.445Z,766.3610
2024-05-09T01:33:38.341Z,760.6840
2024-05-09T01:33:49.697Z,762.4210
2024-05-09T01:34:00.948Z,759.8180
2024-05-09T01:34:12.034Z,764.6050
2024-05-09T01:34:23.118Z,757.6620
2024-05-09T01:34:34.136Z,760.6840
2024-05-09T01:34:45.179Z,761.1170
2024-05-09T01:34:56.264Z,762.4210
2024-05-09T01:35:07.395Z,765.0430
2024-05-09T01:35:18.529Z,763.2930
2024-05-09T01:35:29.699Z,765.9210
2024-05-09T01:35:41.953Z,762.8570
2024-05-09T01:35:53.863Z,763.7300
2024-05-09T01:36:04.944Z,758.5230
2024-05-09T01:36:16.020Z,753.3860
2024-05-09T01:36:27.097Z,759.3860
2024-05-09T01:36:38.137Z,765.4820
2024-05-09T01:36:49.155Z,764.6050
2024-05-09T01:37:00.215Z,759.8180
2024-05-09T01:37:11.266Z,762.8570
2024-05-09T01:37:22.320Z,767.2410
2024-05-09T01:37:33.358Z,764.6050
2024-05-09T01:37:44.440Z,769.0090
2024-05-09T01:37:55.543Z,766.3610
2024-05-09T01:38:06.823Z,766.3610
2024-05-09T01:38:18.000Z,763.7300
2024-05-09T01:38:29.120Z,760.6840
2024-05-09T01:38:40.275Z,769.0090
2024-05-09T01:38:51.315Z,756.8030
2024-05-09T01:39:02.388Z,763.7300
2024-05-09T01:39:13.448Z,769.0090
2024-05-09T01:39:24.480Z,763.7300
2024-05-09T01:39:35.529Z,765.0430
2024-05-09T01:39:46.583Z,761.1170
2024-05-09T01:39:57.647Z,759.3860
2024-05-09T01:40:12.289Z,768.1240
2024-05-09T01:40:35.542Z,758.5230
2024-05-09T01:40:42.613Z,756.3740
2024-05-09T01:40:53.731Z,752.5370
2024-05-09T01:41:04.809Z,758.5230
2024-05-09T01:41:15.978Z,760.2510
2024-05-09T01:41:27.142Z,760.6840
2024-05-09T01:41:38.290Z,756.8030
2024-05-09T01:41:49.318Z,756.3740
2024-05-09T01:42:00.374Z,761.5520
2024-05-09T01:42:11.417Z,760.6840
2024-05-09T01:42:22.435Z,759.3860
2024-05-09T01:42:33.488Z,763.2930
2024-05-09T01:42:44.528Z,757.6620
2024-05-09T01:42:55.568Z,760.6840
2024-05-09T01:43:06.944Z,759.3860
2024-05-09T01:43:18.285Z,760.2510
2024-05-09T01:43:29.328Z,756.8030
2024-05-09T01:43:40.361Z,755.9460
2024-05-09T01:43:51.453Z,758.0920
2024-05-09T01:44:02.479Z,761.9860
2024-05-09T01:44:13.642Z,761.1170
2024-05-09T01:44:24.763Z,761.9860
2024-05-09T01:44:35.891Z,767.2410
2024-05-09T01:44:46.944Z,762.4210
2024-05-09T01:44:57.976Z,756.3740
2024-05-09T01:45:09.022Z,758.5230
2024-05-09T01:45:20.084Z,765.4820
2024-05-09T01:45:31.176Z,758.0920
2024-05-09T01:45:42.271Z,766.3610
2024-05-09T01:45:53.265Z,764.1670
2024-05-09T01:46:04.311Z,761.1170
2024-05-09T01:46:15.378Z,763.2930
2024-05-09T01:46:26.416Z,765.0430
2024-05-09T01:46:37.460Z,761.1170
2024-05-09T01:46:48.567Z,763.2930
2024-05-09T01:46:59.691Z,766.8010
2024-05-09T01:47:10.905Z,759.8180
2024-05-09T01:47:22.314Z,768.1240
2024-05-09T01:47:33.609Z,758.9540
2024-05-09T01:47:44.938Z,760.2510
2024-05-09T01:47:56.287Z,760.2510
2024-05-09T01:48:07.552Z,756.3740
2024-05-09T01:48:18.808Z,760.2510
2024-05-09T01:48:30.018Z,759.8180
2024-05-09T01:48:41.282Z,765.4820
2024-05-09T01:48:52.436Z,761.9860
2024-05-09T01:49:03.647Z,760.6840
2024-05-09T01:49:14.868Z,758.0920
2024-05-09T01:49:26.116Z,760.2510
2024-05-09T01:49:37.466Z,760.2510
2024-05-09T01:49:48.603Z,762.8570
2024-05-09T01:49:59.700Z,765.0430
2024-05-09T01:50:11.106Z,759.8180
2024-05-09T01:50:33.634Z,758.9540
2024-05-09T01:50:42.277Z,756.8030
2024-05-09T01:50:54.371Z,756.3740
2024-05-09T01:51:05.442Z,753.3860
2024-05-09T01:51:16.660Z,757.6620
2024-05-09T01:51:27.732Z,759.8180
2024-05-09T01:51:38.764Z,756.3740
2024-05-09T01:51:49.825Z,755.0900
2024-05-09T01:52:00.931Z,759.8180
2024-05-09T01:52:11.951Z,755.9460
2024-05-09T01:52:23.082Z,760.2510
2024-05-09T01:52:34.128Z,760.6840
2024-05-09T01:52:45.304Z,760.6840
2024-05-09T01:52:56.472Z,755.0900
2024-05-09T01:53:07.688Z,761.1170
2024-05-09T01:53:18.833Z,754.6640
2024-05-09T01:53:29.930Z,759.3860
2024-05-09T01:53:41.050Z,758.9540
2024-05-09T01:53:52.112Z,755.5180
2024-05-09T01:54:03.156Z,761.9860
2024-05-09T01:54:14.194Z,761.9860
2024-05-09T01:54:25.280Z,761.9860
2024-05-09T01:54:36.314Z,763.7300
2024-05-09T01:54:47.409Z,762.4210
2024-05-09T01:55:00.701Z,757.6620
2024-05-09T01:55:13.161Z,759.8180
2024-05-09T01:55:24.240Z,754.2370
2024-05-09T01:55:35.327Z,755.9460
2024-05-09T01:55:46.434Z,758.5230
2024-05-09T01:55:57.490Z,754.2370
2024-05-09T01:56:08.567Z,753.8110
2024-05-09T01:56:19.633Z,757.6620
2024-05-09T01:56:30.834Z,761.1170
2024-05-09T01:56:41.984Z,758.5230
2024-05-09T01:56:53.042Z,761.9860
2024-05-09T01:57:04.075Z,761.1170
2024-05-09T01:57:15.152Z,757.6620
2024-05-09T01:57:26.197Z,766.8010
2024-05-09T01:57:37.253Z,755.5180
2024-05-09T01:57:48.285Z,763.2930
2024-05-09T01:57:59.360Z,761.9860
2024-05-09T01:58:10.419Z,758.0920
2024-05-09T01:58:21.489Z,757.6620
2024-05-09T01:58:32.545Z,764.1670
2024-05-09T01:58:43.590Z,758.5230
2024-05-09T01:58:54.688Z,761.5520
2024-05-09T01:59:05.760Z,755.0900
2024-05-09T01:59:16.841Z,758.5230
2024-05-09T01:59:27.953Z,758.5230
2024-05-09T01:59:39.104Z,758.5230
2024-05-09T01:59:50.131Z,756.3740
2024-05-09T02:00:01.225Z,761.5520
2024-05-09T02:00:15.725Z,755.9460
2024-05-09T02:00:36.173Z,752.1130
2024-05-09T02:00:46.166Z,749.5790
2024-05-09T02:00:57.283Z,747.4800
2024-05-09T02:01:08.423Z,749.5790
2024-05-09T02:01:19.489Z,753.8110
2024-05-09T02:01:30.635Z,749.5790
2024-05-09T02:01:56.583Z,753.8110
2024-05-09T02:02:04.589Z,742.5760
2024-05-09T02:02:15.854Z,740.1030
2024-05-09T02:02:27.016Z,742.5760
2024-05-09T02:02:38.202Z,751.2660
2024-05-09T02:02:49.384Z,748.3180
2024-05-09T02:03:00.844Z,743.4040
2024-05-09T02:03:15.212Z,747.4800
2024-05-09T02:03:29.118Z,740.1030
2024-05-09T02:03:40.448Z,740.1030
2024-05-09T02:03:51.659Z,748.3180
2024-05-09T02:04:03.240Z,748.3180
2024-05-09T02:04:14.590Z,751.6890
2024-05-09T02:04:25.966Z,750.0000
2024-05-09T02:04:37.149Z,750.4220
2024-05-09T02:04:48.353Z,743.4040
2024-05-09T02:04:59.599Z,748.3180
2024-05-09T02:05:10.923Z,744.2330
2024-05-09T02:05:22.244Z,742.5760
2024-05-09T02:05:33.444Z,750.8440
2024-05-09T02:05:44.803Z,748.3180
2024-05-09T02:05:56.007Z,746.6440
2024-05-09T02:06:07.176Z,745.0650
2024-05-09T02:06:18.228Z,754.2370
2024-05-09T02:06:29.266Z,750.8440
2024-05-09T02:06:40.305Z,749.1580
2024-05-09T02:06:51.371Z,750.8440
2024-05-09T02:07:02.418Z,752.5370
2024-05-09T02:07:13.497Z,751.6890
2024-05-09T02:07:24.549Z,747.4800
2024-05-09T02:07:35.611Z,749.1580
2024-05-09T02:07:46.680Z,754.2370
2024-05-09T02:07:57.789Z,753.3860
2024-05-09T02:08:08.949Z,745.0650
2024-05-09T02:08:20.203Z,752.1130
2024-05-09T02:08:31.403Z,754.2370
2024-05-09T02:08:42.606Z,748.3180
2024-05-09T02:08:53.663Z,750.8440
2024-05-09T02:09:04.709Z,752.5370
2024-05-09T02:09:15.753Z,750.8440
2024-05-09T02:09:26.809Z,750.0000
2024-05-09T02:09:37.854Z,752.1130
2024-05-09T02:09:48.913Z,750.0000
2024-05-09T02:09:59.964Z,747.0620
2024-05-09T02:10:16.640Z,753.3860
2024-05-09T02:10:32.488Z,747.0620
2024-05-09T02:10:45.167Z,741.7500
2024-05-09T02:10:56.562Z,740.9260
2024-05-09T02:11:07.709Z,742.5760
2024-05-09T02:11:18.859Z,747.0620
2024-05-09T02:11:30.017Z,748.3180
2024-05-09T02:11:41.220Z,746.2270
2024-05-09T02:11:52.392Z,747.4800
2024-05-09T02:12:03.532Z,743.4040
2024-05-09T02:12:14.853Z,744.2330
2024-05-09T02:12:26.086Z,749.5790
2024-05-09T02:12:37.184Z,742.5760
2024-05-09T02:12:48.226Z,743.4040
2024-05-09T02:12:59.300Z,747.0620
2024-05-09T02:13:10.361Z,752.5370
2024-05-09T02:13:21.386Z,752.5370
2024-05-09T02:13:32.612Z,748.3180
2024-05-09T02:13:43.721Z,750.0000
2024-05-09T02:13:54.832Z,749.1580
2024-05-09T02:14:05.927Z,753.3860
2024-05-09T02:14:16.995Z,752.9610
2024-05-09T02:14:28.159Z,750.8440
2024-05-09T02:14:39.286Z,747.4800